ěÝzenÝ letovÚho provozu ╚eskÚ republiky
Letiste: LKPR Aktualizace: 21.10.2021 12:30:29  UTC
 METAR LKPR 21.10. 12:30 ...
METAR LKPR 211230Z 25033G46KT 9999 SCT040 14/05 Q1004 NOSIG RMK REG QNH 0999=
 TAF LKPR 21.10. 11:00 ...
TAF LKPR 211100Z 2112/2218 25025KT CAVOK      TEMPO 2112/2122 25030G45KT      PROB40 TEMPO 2112/2115 25035G54KT      TEMPO 2120/2123 7000 SHRA BKN025      BECMG 2123/2201 26015KT      TEMPO 2209/2218 25015G35KT=
 WARNING LKPR 21.10. 11:44 ...
LKPR AD WRNG 6 VALID 211200/211515 SFC WIND 250/35KT MAX 50KT FCST NC=